Huvudsida
METAR-TAF:

METAR-TAF

Flygplatser :

Bamako, Mali

latitud: 12-32N, longitud: 007-57W, höjd: 380 m

Aktuellt väderrapport

Denna rapport gjordes för 35 minuter sedan, klockan 07:30 UTC
Vind 2 kt varierande vindriktning
Temperatur 23°C
Fuktighet 94%
Tryck 1015 hPa
Sikt: 8000 m
Få moln på en höjd av 2000 ft

METAR: GABS 230730Z VRB02KT 8000 FEW020 23/22 Q1015 NOSIG

Tid: 08:05 (08:05 UTC)

Väderprognos

Denna rapport gjordes för 3 timmar och 5 minuter sedan, klockan 05:00 UTC
Prognos gäller från 23 kl. 06 UTC till 24 kl. 12 UTC
Vind 4 kt varierande vindriktning
Sikt 10 km eller mer
Få moln på en höjd av 3000 ft

TAF: GABS 230500Z 2306/2412 VRB04KT 9999 FEW030

Aktuella väderrapporter och prognoser från 4000 flygplatser (METAR- och TAF-rapporter).

De tillgängliga stationerna syns som gula och röda prickar på kartan.

För musen över prickarna för att se namnen på stationerna.

Klicka sedan för att få väderrapporter och prognoser.

För att ändra kartan: Klicka på de gröna knapparna med ett svart kors på för att zooma in; den gröna knappen med ett streck på för att zooma ut; eller på de gröna pilarna för angränsande kartor.


METAR-TAF: